Terminal Aerodrome Forecast
Issued by NWS

Current Version | Previous Version | Text Only | Print | Product List | Glossary Off
Versions: 1 2 3 4 5 6 7 8 9 10 11 12 13 14 15 16 17 18 19 20 21

694
FTUS41 KILN 191737
TAFLUK
TAF
KLUK 191737Z 1918/2018 30004KT P6SM SCT050
     FM200600 00000KT 4SM BR SKC
     FM200800 00000KT 2SM BR FEW250
     FM201300 00000KT P6SM FEW250
     FM201500 22004KT P6SM FEW050=

USA.gov is the U.S. government's official web portal to all federal, state and local government web resources and services.